createdAt,value
2022-09-15T00:02:14.132Z,994
2022-09-15T00:04:48.837Z,994
2022-09-15T00:07:21.664Z,994
2022-09-15T00:09:55.679Z,994
2022-09-15T00:12:27.964Z,994
2022-09-15T00:15:00.223Z,994
2022-09-15T00:17:33.641Z,994
2022-09-15T00:20:07.878Z,994.1
2022-09-15T00:22:42.883Z,994
2022-09-15T00:25:14.200Z,993.9
2022-09-15T00:27:46.727Z,994
2022-09-15T00:30:19.690Z,993.9
2022-09-15T00:32:52.528Z,993.9
2022-09-15T00:35:26.065Z,994
2022-09-15T00:37:59.116Z,993.9
2022-09-15T00:40:32.599Z,993.8
2022-09-15T00:43:04.900Z,993.9
2022-09-15T00:45:38.169Z,993.9
2022-09-15T00:48:10.230Z,993.9
2022-09-15T00:50:43.105Z,993.9
2022-09-15T00:53:15.469Z,993.8
2022-09-15T00:55:47.957Z,993.8
2022-09-15T00:58:20.658Z,993.8
2022-09-15T01:00:53.461Z,993.8
2022-09-15T01:03:26.499Z,993.8
2022-09-15T01:05:58.486Z,993.8
2022-09-15T01:08:35.103Z,993.7
2022-09-15T01:11:08.427Z,993.7
2022-09-15T01:13:43.428Z,993.7
2022-09-15T01:16:18.042Z,993.7
2022-09-15T01:18:50.457Z,993.7
2022-09-15T01:21:23.947Z,993.7
2022-09-15T01:23:56.530Z,993.7
2022-09-15T01:26:29.190Z,993.7
2022-09-15T01:29:02.118Z,993.7
2022-09-15T01:31:38.342Z,993.7
2022-09-15T01:34:10.881Z,993.7
2022-09-15T01:36:43.727Z,993.7
2022-09-15T01:39:16.790Z,993.6
2022-09-15T01:41:49.713Z,993.7
2022-09-15T01:44:22.519Z,993.7
2022-09-15T01:46:56.619Z,993.6
2022-09-15T01:49:29.818Z,993.6
2022-09-15T01:52:03.500Z,993.6
2022-09-15T01:54:35.552Z,993.6
2022-09-15T01:57:08.173Z,993.5
2022-09-15T01:59:40.408Z,993.6
2022-09-15T02:02:13.186Z,993.5
2022-09-15T02:04:52.509Z,993.5
2022-09-15T02:07:24.982Z,993.5
2022-09-15T02:09:58.958Z,993.4
2022-09-15T02:12:32.237Z,993.4
2022-09-15T02:15:04.960Z,993.3
2022-09-15T02:17:37.588Z,993.3
2022-09-15T02:20:10.568Z,993.3
2022-09-15T02:22:44.809Z,993.3
2022-09-15T02:25:17.052Z,993.2
2022-09-15T02:27:49.757Z,993.3
2022-09-15T02:30:22.070Z,993.2
2022-09-15T02:32:54.422Z,993.2
2022-09-15T02:35:27.304Z,993.1
2022-09-15T02:37:59.662Z,993.2
2022-09-15T02:40:34.181Z,993.2
2022-09-15T02:43:06.862Z,993.1
2022-09-15T02:45:39.207Z,993.1
2022-09-15T02:48:11.359Z,993.1
2022-09-15T02:50:44.590Z,993.1
2022-09-15T02:53:16.397Z,993.1
2022-09-15T02:55:49.606Z,993
2022-09-15T02:58:22.897Z,993
2022-09-15T03:00:58.912Z,992.9
2022-09-15T03:03:30.515Z,992.9
2022-09-15T03:06:04.489Z,992.9
2022-09-15T03:08:39.704Z,992.8
2022-09-15T03:11:11.363Z,992.8
2022-09-15T03:13:47.755Z,992.8
2022-09-15T03:16:21.320Z,992.9
2022-09-15T03:18:57.415Z,992.8
2022-09-15T03:21:29.236Z,992.7
2022-09-15T03:24:01.764Z,992.7
2022-09-15T03:26:35.444Z,992.7
2022-09-15T03:29:08.357Z,992.6
2022-09-15T03:31:41.947Z,992.6
2022-09-15T03:34:14.179Z,992.6
2022-09-15T03:36:47.711Z,992.5
2022-09-15T03:39:29.458Z,992.6
2022-09-15T03:42:08.021Z,992.5
2022-09-15T03:44:39.055Z,992.6
2022-09-15T03:47:11.346Z,992.5
2022-09-15T03:49:44.019Z,992.6
2022-09-15T03:52:17.059Z,992.5
2022-09-15T03:54:49.521Z,992.5
2022-09-15T03:57:22.121Z,992.4
2022-09-15T03:59:54.960Z,992.4
2022-09-15T04:02:31.943Z,992.4
2022-09-15T04:05:04.398Z,992.4
2022-09-15T04:07:37.309Z,992.4
2022-09-15T04:10:12.591Z,992.3
2022-09-15T04:12:47.749Z,992.4
2022-09-15T04:15:19.117Z,992.3
2022-09-15T04:17:51.713Z,992.3
2022-09-15T04:20:24.442Z,992.3
2022-09-15T04:22:58.859Z,992.2
2022-09-15T04:25:31.708Z,992.2
2022-09-15T04:28:05.601Z,992.2
2022-09-15T04:30:38.405Z,992.2
2022-09-15T04:33:11.317Z,992.2
2022-09-15T04:35:46.688Z,992.2
2022-09-15T04:38:18.256Z,992.2
2022-09-15T04:40:51.016Z,992.1
2022-09-15T04:43:23.547Z,992.1
2022-09-15T04:45:56.293Z,992.1
2022-09-15T04:48:30.005Z,992.1
2022-09-15T04:51:04.061Z,992.2
2022-09-15T04:53:36.691Z,992.2
2022-09-15T04:56:09.320Z,992.2
2022-09-15T04:58:41.954Z,992.3
2022-09-15T05:01:15.964Z,992.3
2022-09-15T05:03:48.014Z,992.4
2022-09-15T05:06:21.717Z,992.4
2022-09-15T05:08:54.959Z,992.4
2022-09-15T05:11:28.983Z,992.4
2022-09-15T05:14:01.216Z,992.5
2022-09-15T05:16:33.886Z,992.4
2022-09-15T05:19:06.268Z,992.5
2022-09-15T05:21:38.799Z,992.5
2022-09-15T05:24:11.245Z,992.6
2022-09-15T05:26:44.242Z,992.7
2022-09-15T05:29:16.571Z,992.7
2022-09-15T05:31:49.982Z,992.8
2022-09-15T05:34:23.521Z,992.9
2022-09-15T05:36:56.840Z,993
2022-09-15T05:39:29.020Z,993
2022-09-15T05:42:01.790Z,992.9
2022-09-15T05:44:37.237Z,993
2022-09-15T05:47:08.444Z,993
2022-09-15T05:49:41.120Z,993
2022-09-15T05:52:14.654Z,993.1
2022-09-15T05:54:48.450Z,993.2
2022-09-15T05:57:21.302Z,993.2
2022-09-15T05:59:54.892Z,993.1
2022-09-15T06:02:28.744Z,993.1
2022-09-15T06:05:05.366Z,993.1
2022-09-15T06:07:40.935Z,993.1
2022-09-15T06:10:15.738Z,993.1
2022-09-15T06:12:50.137Z,993
2022-09-15T06:15:21.988Z,992.9
2022-09-15T06:17:56.648Z,993
2022-09-15T06:20:29.562Z,993.1
2022-09-15T06:23:02.166Z,993.3
2022-09-15T06:25:35.368Z,993.3
2022-09-15T06:28:08.155Z,993.4
2022-09-15T06:30:43.278Z,993.4
2022-09-15T06:33:14.633Z,993.4
2022-09-15T06:35:47.907Z,993.5
2022-09-15T06:38:23.028Z,993.5
2022-09-15T06:40:54.520Z,993.5
2022-09-15T06:43:27.290Z,993.5
2022-09-15T06:45:59.926Z,993.5
2022-09-15T06:48:35.139Z,993.5
2022-09-15T06:51:10.319Z,993.6
2022-09-15T06:53:44.704Z,993.6
2022-09-15T06:56:16.192Z,993.6
2022-09-15T06:58:48.923Z,993.7
2022-09-15T07:01:21.604Z,993.6
2022-09-15T07:03:54.687Z,993.7
2022-09-15T07:06:28.247Z,993.7
2022-09-15T07:09:01.892Z,993.6
2022-09-15T07:11:35.548Z,993.5
2022-09-15T07:14:08.602Z,993.6
2022-09-15T07:16:42.834Z,993.7
2022-09-15T07:19:16.061Z,993.7
2022-09-15T07:21:48.716Z,993.7
2022-09-15T07:24:22.671Z,993.8
2022-09-15T07:26:55.926Z,993.9
2022-09-15T07:29:28.627Z,993.9
2022-09-15T07:32:01.792Z,993.9
2022-09-15T07:34:33.968Z,993.9
2022-09-15T07:37:06.582Z,993.9
2022-09-15T07:39:39.110Z,993.9
2022-09-15T07:42:12.066Z,993.9
2022-09-15T07:44:44.767Z,993.9
2022-09-15T07:47:18.601Z,993.9
2022-09-15T07:49:50.997Z,994
2022-09-15T07:52:24.439Z,994
2022-09-15T07:54:57.211Z,994.1
2022-09-15T07:57:30.222Z,994.2
2022-09-15T08:00:03.164Z,994.1
2022-09-15T08:02:36.134Z,994.1
2022-09-15T08:05:09.210Z,994.1
2022-09-15T08:07:42.008Z,994.2
2022-09-15T08:10:14.678Z,994.3
2022-09-15T08:12:47.596Z,994.2
2022-09-15T08:15:20.264Z,994.3
2022-09-15T08:17:52.796Z,994.3
2022-09-15T08:20:25.128Z,994.4
2022-09-15T08:22:57.841Z,994.5
2022-09-15T08:25:30.325Z,994.5
2022-09-15T08:28:02.746Z,994.5
2022-09-15T08:30:35.117Z,994.5
2022-09-15T08:33:08.122Z,994.6
2022-09-15T08:35:40.153Z,994.6
2022-09-15T08:38:12.968Z,994.6
2022-09-15T08:40:45.264Z,994.7
2022-09-15T08:43:20.779Z,994.7
2022-09-15T08:45:52.615Z,994.8
2022-09-15T08:48:25.020Z,994.8
2022-09-15T08:50:59.085Z,994.8
2022-09-15T08:53:30.632Z,994.9
2022-09-15T08:56:02.613Z,995
2022-09-15T08:58:34.881Z,995.1
2022-09-15T09:01:07.871Z,995
2022-09-15T09:03:42.724Z,995.1
2022-09-15T09:06:16.611Z,995
2022-09-15T09:08:48.055Z,995.1
2022-09-15T09:11:20.186Z,995.2
2022-09-15T09:13:52.643Z,995.2
2022-09-15T09:16:25.605Z,995.2
2022-09-15T09:18:58.098Z,995.2
2022-09-15T09:21:30.844Z,995.2
2022-09-15T09:24:03.185Z,995.2
2022-09-15T09:26:35.285Z,995.3
2022-09-15T09:29:08.040Z,995.3
2022-09-15T09:31:40.625Z,995.3
2022-09-15T09:34:12.003Z,995.3
2022-09-15T09:36:44.066Z,995.2
2022-09-15T09:39:16.983Z,995.1
2022-09-15T09:41:49.846Z,995
2022-09-15T09:44:21.832Z,994.9
2022-09-15T09:47:29.966Z,994.8
2022-09-15T09:50:03.129Z,994.6
2022-09-15T09:52:36.273Z,994.6
2022-09-15T09:55:11.127Z,994.5
2022-09-15T09:57:43.371Z,994.2
2022-09-15T10:00:17.272Z,994.1
2022-09-15T10:02:50.437Z,994
2022-09-15T10:08:05.098Z,993.9
2022-09-15T10:10:40.367Z,993.8
2022-09-15T10:13:14.410Z,993.6
2022-09-15T10:15:45.471Z,993.5
2022-09-15T10:18:17.384Z,993.4
2022-09-15T10:20:56.899Z,993.4
2022-09-15T10:23:26.345Z,993.2
2022-09-15T10:26:02.051Z,993.2
2022-09-15T10:28:33.585Z,993.2
2022-09-15T10:31:06.277Z,993.2
2022-09-15T10:33:39.084Z,993.2
2022-09-15T10:36:09.853Z,993.1
2022-09-15T10:38:44.190Z,993
2022-09-15T10:41:15.479Z,993
2022-09-15T10:43:50.242Z,993
2022-09-15T10:46:21.967Z,993
2022-09-15T10:48:54.249Z,992.9
2022-09-15T10:51:26.753Z,992.7
2022-09-15T10:54:01.610Z,992.7
2022-09-15T10:56:33.457Z,992.6
2022-09-15T10:59:06.002Z,992.6
2022-09-15T11:01:38.678Z,992.6
2022-09-15T11:04:13.764Z,992.6
2022-09-15T11:06:45.461Z,992.7
2022-09-15T11:09:17.622Z,992.8
2022-09-15T11:11:49.571Z,992.8
2022-09-15T11:14:22.335Z,992.7
2022-09-15T11:16:55.710Z,992.7
2022-09-15T11:19:27.923Z,992.7
2022-09-15T11:21:59.800Z,992.7
2022-09-15T11:24:32.852Z,992.6
2022-09-15T11:27:06.523Z,992.6
2022-09-15T11:29:39.959Z,992.5
2022-09-15T11:32:11.858Z,992.5
2022-09-15T11:34:44.397Z,992.4
2022-09-15T11:37:19.401Z,992.4
2022-09-15T11:39:54.254Z,992.3
2022-09-15T11:42:25.295Z,992.2
2022-09-15T11:44:57.341Z,992.1
2022-09-15T11:47:34.801Z,992.3
2022-09-15T11:50:07.391Z,992.4
2022-09-15T11:52:39.538Z,992.4
2022-09-15T11:55:12.350Z,992.4
2022-09-15T11:57:45.340Z,992.5
2022-09-15T12:00:17.803Z,992.6
2022-09-15T12:02:51.092Z,992.5
2022-09-15T12:05:22.413Z,992.5
2022-09-15T12:07:57.081Z,992.5
2022-09-15T12:10:29.449Z,992.6
2022-09-15T12:13:05.406Z,992.6
2022-09-15T12:15:36.850Z,992.6
2022-09-15T12:18:47.487Z,992.6
2022-09-15T12:21:18.345Z,992.6
2022-09-15T12:23:53.351Z,992.5
2022-09-15T12:26:25.746Z,992.5
2022-09-15T12:28:58.740Z,992.5
2022-09-15T12:31:32.555Z,992.3
2022-09-15T12:34:05.091Z,992.3
2022-09-15T12:36:38.025Z,992.3
2022-09-15T12:39:15.818Z,992.2
2022-09-15T12:41:48.418Z,992.2
2022-09-15T12:44:20.209Z,992.2
2022-09-15T12:46:52.669Z,992.2
2022-09-15T12:49:25.524Z,992.2
2022-09-15T12:51:57.833Z,992.1
2022-09-15T12:54:33.326Z,992
2022-09-15T12:57:04.788Z,992.1
2022-09-15T12:59:38.226Z,992
2022-09-15T13:02:12.752Z,992
2022-09-15T13:04:46.264Z,992
2022-09-15T13:07:18.131Z,991.9
2022-09-15T13:09:49.212Z,991.9
2022-09-15T13:12:22.452Z,991.9
2022-09-15T13:14:54.659Z,991.9
2022-09-15T13:17:27.412Z,991.9
2022-09-15T13:20:00.035Z,991.9
2022-09-15T13:22:34.971Z,991.9
2022-09-15T13:25:09.809Z,991.9
2022-09-15T13:27:45.553Z,991.8
2022-09-15T13:30:17.027Z,991.8
2022-09-15T13:32:49.827Z,991.8
2022-09-15T13:35:22.731Z,991.8
2022-09-15T13:38:32.732Z,991.7
2022-09-15T13:41:02.560Z,991.6
2022-09-15T13:43:47.092Z,991.6
2022-09-15T13:46:20.887Z,991.6
2022-09-15T13:48:53.129Z,991.5
2022-09-15T13:51:25.890Z,991.4
2022-09-15T13:53:59.183Z,991.4
2022-09-15T13:56:31.482Z,991.5
2022-09-15T13:59:19.544Z,991.6
2022-09-15T14:01:54.621Z,991.5
2022-09-15T14:04:26.759Z,991.6
2022-09-15T14:07:03.119Z,991.6
2022-09-15T14:09:34.352Z,991.5
2022-09-15T14:12:06.789Z,991.4
2022-09-15T14:14:39.232Z,991.3
2022-09-15T14:17:11.453Z,991.3
2022-09-15T14:19:44.289Z,991.1
2022-09-15T14:22:15.469Z,991.1
2022-09-15T14:24:47.271Z,991.1
2022-09-15T14:27:19.545Z,991
2022-09-15T14:29:52.453Z,991
2022-09-15T14:32:24.563Z,990.9
2022-09-15T14:34:56.937Z,990.9
2022-09-15T14:37:29.561Z,990.9
2022-09-15T14:40:04.889Z,990.8
2022-09-15T14:42:36.804Z,990.8
2022-09-15T14:46:09.744Z,990.8
2022-09-15T14:48:40.846Z,990.8
2022-09-15T14:51:13.926Z,990.8
2022-09-15T14:53:47.667Z,990.9
2022-09-15T14:56:19.666Z,990.9
2022-09-15T14:58:51.419Z,990.8
2022-09-15T15:01:27.409Z,990.9
2022-09-15T15:03:59.851Z,990.8
2022-09-15T15:06:31.558Z,990.7
2022-09-15T20:57:20.242Z,991.4
2022-09-15T20:59:53.878Z,991.5
2022-09-15T21:02:25.478Z,991.7
2022-09-15T21:04:58.131Z,991.6
2022-09-15T21:07:30.418Z,991.3
2022-09-15T21:10:06.151Z,991.4
2022-09-15T21:12:38.882Z,991.4
2022-09-15T21:15:11.180Z,991.7
2022-09-15T21:17:43.939Z,991.7
2022-09-15T21:20:16.533Z,991.6
2022-09-15T21:22:48.664Z,991.6
2022-09-15T21:25:21.400Z,991.7
2022-09-15T21:27:55.353Z,991.8
2022-09-15T21:30:27.580Z,991.6
2022-09-15T21:33:00.297Z,991.5
2022-09-15T21:35:36.303Z,991.6
2022-09-15T21:38:09.866Z,991.6
2022-09-15T21:40:42.804Z,991.7
2022-09-15T21:43:15.062Z,991.7
2022-09-15T21:45:47.888Z,991.8
2022-09-15T21:48:20.361Z,991.8
2022-09-15T21:50:52.721Z,992.1
2022-09-15T21:53:25.460Z,992.3
2022-09-15T21:55:58.236Z,992.6
2022-09-15T21:58:31.027Z,992.6
2022-09-15T22:01:04.127Z,992.7
2022-09-15T22:03:37.310Z,992.7
2022-09-15T22:06:09.876Z,992.7
2022-09-15T22:08:42.684Z,992.7
2022-09-15T22:11:15.438Z,992.7
2022-09-15T22:13:48.161Z,992.8
2022-09-15T22:16:21.261Z,993
2022-09-15T22:18:52.447Z,993.1
2022-09-15T22:21:25.063Z,993.2
2022-09-15T22:23:57.797Z,993.4
2022-09-15T22:26:30.196Z,993.4
2022-09-15T22:29:03.130Z,993.3
2022-09-15T22:31:36.457Z,993.3
2022-09-15T22:34:09.156Z,993.3
2022-09-15T22:36:41.799Z,993.4
2022-09-15T22:39:16.764Z,993.6
2022-09-15T22:41:50.440Z,993.8
2022-09-15T22:44:23.597Z,993.9
2022-09-15T22:46:59.004Z,994
2022-09-15T22:49:30.520Z,994.2
2022-09-15T22:52:03.078Z,994.3
2022-09-15T22:54:35.791Z,994.2
2022-09-15T22:57:11.397Z,994
2022-09-15T22:59:42.537Z,994.2
2022-09-15T23:02:15.492Z,994.1
2022-09-15T23:04:47.636Z,993.9
2022-09-15T23:07:24.946Z,993.9
2022-09-15T23:09:57.767Z,994
2022-09-15T23:12:36.113Z,993.9
2022-09-15T23:15:08.700Z,994
2022-09-15T23:17:41.344Z,993.8
2022-09-15T23:20:12.507Z,993.9
2022-09-15T23:22:45.020Z,994
2022-09-15T23:25:17.603Z,993.9
2022-09-15T23:27:49.738Z,993.9
2022-09-15T23:30:22.031Z,993.7
2022-09-15T23:32:54.967Z,993.7
2022-09-15T23:35:27.546Z,993.4
2022-09-15T23:38:00.493Z,993.4
2022-09-15T23:40:33.681Z,993.4
2022-09-15T23:43:11.331Z,993.2
2022-09-15T23:45:44.357Z,993.2
2022-09-15T23:48:17.313Z,993.1
2022-09-15T23:50:50.434Z,993.1
2022-09-15T23:53:22.649Z,993.1
2022-09-15T23:55:54.904Z,993.1
2022-09-15T23:58:27.041Z,993.2
